createdAt,value
2023-03-24T00:01:23.803Z,99760.34
2023-03-24T00:03:52.650Z,99752.28
2023-03-24T00:06:23.463Z,99754.84
2023-03-24T00:08:52.995Z,99760.69
2023-03-24T00:11:21.413Z,99761.53
2023-03-24T00:13:50.195Z,99758.97
2023-03-24T00:16:19.441Z,99752.63
2023-03-24T00:18:50.344Z,99748.16
2023-03-24T00:21:18.397Z,99733.78
2023-03-24T00:23:47.733Z,99726.19
2023-03-24T00:26:16.759Z,99721.09
2023-03-24T00:28:46.590Z,99716.25
2023-03-24T00:31:15.957Z,99707.38
2023-03-24T00:33:48.063Z,99706.50
2023-03-24T00:36:17.037Z,99700.50
2023-03-24T00:38:47.224Z,99706.69
2023-03-24T00:41:20.021Z,99702.03
2023-03-24T00:43:48.899Z,99688.66
2023-03-24T00:46:28.654Z,99688.50
2023-03-24T00:49:02.197Z,99674.78
2023-03-24T00:51:31.595Z,99676.88
2023-03-24T00:53:59.822Z,99685.44
2023-03-24T00:56:31.877Z,99677.53
2023-03-24T00:59:02.400Z,99672.38
2023-03-24T01:01:33.170Z,99673.22
2023-03-24T01:04:02.391Z,99651.47
2023-03-24T01:06:30.435Z,99655.09
2023-03-24T01:08:58.831Z,99665.19
2023-03-24T01:11:35.886Z,99655.09
2023-03-24T01:14:04.047Z,99654.56
2023-03-24T01:16:32.365Z,99669.13
2023-03-24T01:19:00.584Z,99672.75
2023-03-24T01:21:29.033Z,99662.63
2023-03-24T01:23:57.924Z,99660.91
2023-03-24T01:26:25.861Z,99654.56
2023-03-24T01:28:55.439Z,99656.13
2023-03-24T01:31:23.399Z,99646.34
2023-03-24T01:33:51.512Z,99641.72
2023-03-24T01:36:19.453Z,99633.47
2023-03-24T01:38:47.492Z,99620.63
2023-03-24T01:41:15.607Z,99618.91
2023-03-24T01:43:44.610Z,99608.78
2023-03-24T01:46:19.735Z,99598.50
2023-03-24T01:48:53.021Z,99593.19
2023-03-24T01:51:24.727Z,99591.31
2023-03-24T01:53:59.030Z,99584.78
2023-03-24T01:56:29.528Z,99580.50
2023-03-24T01:59:01.195Z,99572.09
2023-03-24T02:01:43.057Z,99570.38
2023-03-24T02:04:42.272Z,99559.41
2023-03-24T02:07:19.925Z,99551.88
2023-03-24T02:09:48.656Z,99539.34
2023-03-24T02:12:17.194Z,99542.94
2023-03-24T02:14:45.546Z,99533.00
2023-03-24T02:17:57.223Z,99528.56
2023-03-24T02:20:50.747Z,99521.00
2023-03-24T02:23:58.998Z,99514.16
2023-03-24T02:26:53.307Z,99516.72
2023-03-24T02:30:00.705Z,99505.75
2023-03-24T02:33:02.944Z,99517.56
2023-03-24T02:36:09.558Z,99503.38
2023-03-24T02:38:54.942Z,99501.28
2023-03-24T02:41:31.743Z,99510.22
2023-03-24T02:44:06.572Z,99512.09
2023-03-24T02:46:39.453Z,99512.09
2023-03-24T02:49:22.948Z,99495.63
2023-03-24T02:51:54.093Z,99504.72
2023-03-24T02:54:28.771Z,99516.56
2023-03-24T02:57:04.405Z,99499.06
2023-03-24T02:59:58.914Z,99492.72
2023-03-24T03:02:54.967Z,99497.34
2023-03-24T03:05:28.577Z,99493.56
2023-03-24T03:08:01.781Z,99496.16
2023-03-24T03:10:33.539Z,99491.69
2023-03-24T03:13:08.928Z,99504.19
2023-03-24T03:15:41.070Z,99501.25
2023-03-24T03:18:16.104Z,99501.25
2023-03-24T03:20:50.626Z,99495.44
2023-03-24T03:23:23.383Z,99500.75
2023-03-24T03:25:54.244Z,99494.50
2023-03-24T03:28:30.012Z,99489.94
2023-03-24T03:31:00.800Z,99489.38
2023-03-24T03:33:35.941Z,99484.41
2023-03-24T03:36:09.862Z,99489.72
2023-03-24T03:38:47.323Z,99485.75
2023-03-24T03:41:18.393Z,99488.31
2023-03-24T03:43:50.873Z,99489.00
2023-03-24T03:46:19.688Z,99479.72
2023-03-24T03:48:49.102Z,99480.41
2023-03-24T03:51:18.353Z,99483.81
2023-03-24T03:53:59.445Z,99489.81
2023-03-24T03:56:29.555Z,99486.34
2023-03-24T03:59:24.986Z,99499.75
2023-03-24T04:01:53.322Z,99501.47
2023-03-24T04:05:07.011Z,99504.53
2023-03-24T04:08:03.755Z,99498.88
2023-03-24T04:11:33.972Z,99503.84
2023-03-24T04:14:24.215Z,99504.19
2023-03-24T04:17:27.187Z,99503.16
2023-03-24T04:20:05.981Z,99513.75
2023-03-24T04:22:47.291Z,99513.59
2023-03-24T04:25:29.927Z,99529.19
2023-03-24T04:28:03.143Z,99548.25
2023-03-24T04:30:42.603Z,99544.47
2023-03-24T04:33:18.973Z,99545.50
2023-03-24T04:35:56.502Z,99559.22
2023-03-24T04:38:38.284Z,99568.00
2023-03-24T04:41:29.624Z,99577.94
2023-03-24T04:44:10.739Z,99563.72
2023-03-24T04:46:52.261Z,99588.44
2023-03-24T04:49:24.979Z,99601.47
2023-03-24T04:51:53.211Z,99590.66
2023-03-24T04:54:25.459Z,99602.88
2023-03-24T04:57:01.731Z,99609.22
2023-03-24T04:59:46.146Z,99599.75
2023-03-24T05:02:16.598Z,99605.06
2023-03-24T05:04:52.768Z,99620.00
2023-03-24T05:07:28.480Z,99619.34
2023-03-24T05:10:00.007Z,99630.50
2023-03-24T05:12:27.877Z,99637.00
2023-03-24T05:15:19.400Z,99634.59
2023-03-24T05:17:52.951Z,99662.03
2023-03-24T05:20:24.515Z,99662.41
2023-03-24T05:22:53.110Z,99663.44
2023-03-24T05:25:21.400Z,99671.00
2023-03-24T05:27:50.263Z,99673.72
2023-03-24T05:30:24.592Z,99678.69
2023-03-24T05:32:59.231Z,99689.69
2023-03-24T05:35:27.178Z,99701.03
2023-03-24T05:37:55.181Z,99708.72
2023-03-24T05:40:23.248Z,99727.06
2023-03-24T05:42:58.490Z,99727.44
2023-03-24T05:45:30.524Z,99742.69
2023-03-24T05:48:01.672Z,99746.13
2023-03-24T05:50:45.488Z,99754.03
2023-03-24T05:53:13.559Z,99753.31
2023-03-24T05:55:59.955Z,99759.13
2023-03-24T05:58:59.774Z,99767.91
2023-03-24T06:01:48.266Z,99773.38
2023-03-24T06:04:29.936Z,99788.97
2023-03-24T06:07:03.791Z,99793.06
2023-03-24T06:09:37.209Z,99792.56
2023-03-24T06:12:07.267Z,99787.09
2023-03-24T06:14:38.551Z,99796.34
2023-03-24T06:17:15.021Z,99801.81
2023-03-24T06:19:49.683Z,99805.59
2023-03-24T06:22:38.582Z,99826.16
2023-03-24T06:25:11.537Z,99812.44
2023-03-24T06:27:46.209Z,99818.97
2023-03-24T06:30:17.620Z,99823.91
2023-03-24T06:32:47.080Z,99817.72
2023-03-24T06:35:17.975Z,99824.25
2023-03-24T06:37:56.460Z,99828.34
2023-03-24T06:40:24.443Z,99829.38
2023-03-24T06:42:57.164Z,99828.88
2023-03-24T06:45:25.304Z,99836.03
2023-03-24T06:47:55.733Z,99832.63
2023-03-24T06:50:26.975Z,99830.75
2023-03-24T06:52:56.183Z,99830.38
2023-03-24T06:55:24.905Z,99841.19
2023-03-24T06:57:55.166Z,99834.84
2023-03-24T07:00:25.814Z,99839.63
2023-03-24T07:03:08.040Z,99860.69
2023-03-24T07:05:41.386Z,99867.72
2023-03-24T07:08:33.784Z,99873.53
2023-03-24T07:11:00.260Z,99862.41
2023-03-24T07:13:28.475Z,99865.00
2023-03-24T07:16:04.204Z,99861.06
2023-03-24T07:18:32.406Z,99856.44
2023-03-24T07:21:06.358Z,99860.72
2023-03-24T07:23:36.249Z,99857.97
2023-03-24T07:26:10.717Z,99853.34
2023-03-24T07:28:47.355Z,99863.28
2023-03-24T07:31:24.662Z,99865.88
2023-03-24T07:34:01.918Z,99864.34
2023-03-24T07:36:31.423Z,99862.16
2023-03-24T07:38:59.852Z,99864.38
2023-03-24T07:41:34.477Z,99857.03
2023-03-24T07:44:07.226Z,99870.44
2023-03-24T07:46:39.067Z,99874.63
2023-03-24T07:49:18.012Z,99879.22
2023-03-24T07:51:52.948Z,99881.94
2023-03-24T07:54:24.768Z,99893.56
2023-03-24T07:56:54.036Z,99902.63
2023-03-24T07:59:21.845Z,99894.69
2023-03-24T08:01:56.633Z,99913.75
2023-03-24T08:04:46.907Z,99912.16
2023-03-24T08:07:50.462Z,99918.66
2023-03-24T08:10:18.656Z,99921.59
2023-03-24T08:12:46.947Z,99919.03
2023-03-24T08:15:15.746Z,99928.50
2023-03-24T08:17:43.523Z,99920.75
2023-03-24T08:20:15.165Z,99926.47
2023-03-24T08:22:50.118Z,99928.88
2023-03-24T08:25:19.946Z,99912.38
2023-03-24T08:27:48.686Z,99902.59
2023-03-24T08:30:19.670Z,99911.88
2023-03-24T08:32:49.810Z,99920.47
2023-03-24T08:35:20.434Z,99917.72
2023-03-24T08:37:50.229Z,99923.56
2023-03-24T08:40:23.281Z,99916.56
2023-03-24T08:42:53.405Z,99911.41
2023-03-24T08:45:23.999Z,99913.41
2023-03-24T08:47:53.191Z,99926.50
2023-03-24T08:50:23.849Z,99922.38
2023-03-24T08:52:53.952Z,99926.16
2023-03-24T08:55:23.680Z,99923.59
2023-03-24T08:57:52.237Z,99925.31
2023-03-24T09:00:22.661Z,99925.81
2023-03-24T09:02:53.937Z,99932.88
2023-03-24T09:05:36.633Z,99931.63
2023-03-24T09:08:10.601Z,99941.28
2023-03-24T09:10:38.416Z,99940.25
2023-03-24T09:13:06.405Z,99934.56
2023-03-24T09:15:34.910Z,99936.13
2023-03-24T09:18:03.210Z,99938.00
2023-03-24T09:20:31.094Z,99945.22
2023-03-24T09:22:59.242Z,99936.97
2023-03-24T09:25:28.434Z,99941.44
2023-03-24T09:27:56.942Z,99945.38
2023-03-24T09:30:24.702Z,99939.03
2023-03-24T09:32:52.535Z,99935.41
2023-03-24T09:35:20.726Z,99940.91
2023-03-24T09:37:48.550Z,99943.31
2023-03-24T09:40:21.997Z,99945.38
2023-03-24T09:42:57.585Z,99938.31
2023-03-24T09:45:28.203Z,99955.81
2023-03-24T09:47:59.888Z,99960.78
2023-03-24T09:50:34.452Z,99959.41
2023-03-24T09:53:08.866Z,99961.44
2023-03-24T09:55:40.686Z,99966.38
2023-03-24T09:58:14.272Z,99976.19
2023-03-24T10:00:46.170Z,99972.22
2023-03-24T10:03:20.959Z,99986.63
2023-03-24T10:05:55.392Z,99978.22
2023-03-24T10:08:31.538Z,99986.28
2023-03-24T10:11:04.566Z,99988.19
2023-03-24T10:13:47.446Z,99988.19
2023-03-24T10:16:20.317Z,99998.59
2023-03-24T10:18:57.576Z,100003.53
2023-03-24T10:21:28.086Z,100012.09
2023-03-24T10:24:02.378Z,99997.47
2023-03-24T10:26:37.630Z,99994.72
2023-03-24T10:29:18.498Z,99999.38
2023-03-24T10:31:52.334Z,99991.31
2023-03-24T10:34:22.130Z,99994.88
2023-03-24T10:36:52.234Z,99993.00
2023-03-24T10:39:24.302Z,99994.72
2023-03-24T10:42:02.124Z,99998.50
2023-03-24T10:44:31.893Z,100003.16
2023-03-24T10:47:04.670Z,100011.88
2023-03-24T10:49:33.652Z,99991.59
2023-03-24T10:52:03.849Z,99992.75
2023-03-24T10:54:32.790Z,99991.38
2023-03-24T10:57:08.210Z,99991.50
2023-03-24T10:59:47.009Z,99996.28
2023-03-24T11:02:19.755Z,99986.09
2023-03-24T11:04:53.760Z,99990.06
2023-03-24T11:07:23.074Z,99986.06
2023-03-24T11:09:59.891Z,99981.91
2023-03-24T11:12:29.538Z,99983.44
2023-03-24T11:15:21.058Z,99987.72
2023-03-24T11:17:55.885Z,99992.38
2023-03-24T11:20:30.015Z,100004.75
2023-03-24T11:23:02.019Z,100000.97
2023-03-24T11:25:33.762Z,99998.38
2023-03-24T11:28:04.729Z,100009.41
2023-03-24T11:30:45.933Z,100004.56
2023-03-24T11:33:21.104Z,100016.81
2023-03-24T11:36:10.926Z,100017.34
2023-03-24T11:38:39.030Z,100012.03
2023-03-24T11:41:07.370Z,100008.59
2023-03-24T11:43:35.205Z,99999.47
2023-03-24T11:46:09.813Z,99995.69
2023-03-24T11:48:45.656Z,100001.84
2023-03-24T11:51:18.761Z,99998.91
2023-03-24T11:53:52.118Z,99996.00
2023-03-24T11:56:29.247Z,99998.88
2023-03-24T11:59:03.856Z,100002.97
2023-03-24T12:01:37.880Z,100007.94
2023-03-24T12:04:25.935Z,99992.75
2023-03-24T12:07:10.088Z,99993.06
2023-03-24T12:09:46.719Z,99988.06
2023-03-24T12:12:24.038Z,99992.13
2023-03-24T12:15:27.477Z,99991.97
2023-03-24T12:18:08.806Z,99988.84
2023-03-24T12:20:46.335Z,99969.56
2023-03-24T12:23:19.138Z,99974.03
2023-03-24T12:26:06.463Z,99971.06
2023-03-24T12:29:14.066Z,99978.19
2023-03-24T12:32:06.795Z,99962.50
2023-03-24T12:34:56.379Z,99959.94
2023-03-24T12:37:32.156Z,99961.47
2023-03-24T12:40:18.358Z,99961.47
2023-03-24T12:42:47.581Z,99957.16
2023-03-24T12:45:28.822Z,99951.31
2023-03-24T12:48:23.206Z,99961.66
2023-03-24T12:51:05.632Z,99957.50
2023-03-24T12:53:56.806Z,99957.66
2023-03-24T12:56:32.352Z,99963.84
2023-03-24T12:59:04.322Z,99962.78
2023-03-24T13:01:36.382Z,99956.41
2023-03-24T13:04:11.438Z,99953.66
2023-03-24T13:06:47.554Z,99950.91
2023-03-24T13:09:25.587Z,99956.41
2023-03-24T13:11:59.577Z,99954.06
2023-03-24T13:14:32.640Z,99963.19
2023-03-24T13:17:07.065Z,99958.72
2023-03-24T13:19:38.738Z,99954.25
2023-03-24T13:22:15.695Z,99954.25
2023-03-24T13:24:44.647Z,99955.63
2023-03-24T13:27:21.799Z,99952.69
2023-03-24T13:30:08.315Z,99953.75
2023-03-24T13:32:42.772Z,99951.19
2023-03-24T13:35:21.821Z,99937.41
2023-03-24T13:37:53.957Z,99935.53
2023-03-24T13:40:24.514Z,99936.56
2023-03-24T13:42:55.956Z,99927.72
2023-03-24T13:45:37.002Z,99913.41
2023-03-24T13:48:16.579Z,99913.00
2023-03-24T13:50:55.380Z,99906.09
2023-03-24T13:53:33.720Z,99915.00
2023-03-24T13:56:04.383Z,99925.00
2023-03-24T13:58:48.256Z,99941.16
2023-03-24T14:01:20.188Z,99931.84
2023-03-24T14:04:08.562Z,99970.63
2023-03-24T14:06:47.430Z,99968.06
2023-03-24T14:09:22.588Z,99962.44
2023-03-24T14:12:09.206Z,99960.25
2023-03-24T14:14:37.965Z,99950.81
2023-03-24T14:17:16.065Z,99950.13
2023-03-24T14:19:46.001Z,99940.03
2023-03-24T14:22:16.211Z,99936.81
2023-03-24T14:24:48.189Z,99933.38
2023-03-24T14:27:37.941Z,99926.53
2023-03-24T14:30:15.096Z,99932.56
2023-03-24T14:32:47.095Z,99919.84
2023-03-24T14:35:26.223Z,99934.00
2023-03-24T14:37:57.743Z,99927.81
2023-03-24T14:40:32.126Z,99926.09
2023-03-24T14:43:18.549Z,99926.44
2023-03-24T14:45:56.110Z,99925.81
2023-03-24T14:48:34.825Z,99923.22
2023-03-24T14:51:09.842Z,99932.88
2023-03-24T14:53:39.608Z,99947.03
2023-03-24T14:56:15.368Z,99941.69
2023-03-24T14:58:48.105Z,99945.00
2023-03-24T15:01:17.298Z,99953.22
2023-03-24T15:03:54.202Z,99943.28
2023-03-24T15:06:24.334Z,99947.97
2023-03-24T15:08:57.364Z,99938.16
2023-03-24T15:11:29.450Z,99933.69
2023-03-24T15:13:58.809Z,99934.03
2023-03-24T15:16:28.998Z,99928.38
2023-03-24T15:19:02.786Z,99919.44
2023-03-24T15:21:36.948Z,99916.66
2023-03-24T15:24:30.722Z,99910.50
2023-03-24T15:27:20.407Z,99910.50
2023-03-24T15:29:56.086Z,99903.97
2023-03-24T15:32:27.022Z,99900.38
2023-03-24T15:34:57.034Z,99912.41
2023-03-24T15:37:31.757Z,99919.81
2023-03-24T15:40:14.796Z,99918.28
2023-03-24T15:42:46.341Z,99911.91
2023-03-24T15:45:22.583Z,99928.41
2023-03-24T15:47:54.024Z,99946.34
2023-03-24T15:50:34.968Z,99963.03
2023-03-24T15:53:06.227Z,99964.78
2023-03-24T15:55:36.012Z,99971.00
2023-03-24T15:58:22.964Z,99963.47
2023-03-24T16:00:54.226Z,99960.56
2023-03-24T16:03:26.781Z,99964.91
2023-03-24T16:05:55.865Z,99963.13
2023-03-24T16:08:29.562Z,99966.66
2023-03-24T16:10:59.702Z,99965.31
2023-03-24T16:13:29.361Z,99970.28
2023-03-24T16:15:59.576Z,99962.75
2023-03-24T16:18:33.168Z,99970.50
2023-03-24T16:21:04.491Z,99960.16
2023-03-24T16:23:32.450Z,99969.81
2023-03-24T16:26:00.411Z,99954.69
2023-03-24T16:28:31.234Z,99968.59
2023-03-24T16:31:03.545Z,99967.41
2023-03-24T16:33:32.314Z,99963.31
2023-03-24T16:36:00.944Z,99972.91
2023-03-24T16:38:29.039Z,99980.84
2023-03-24T16:40:58.901Z,99984.94
2023-03-24T16:43:27.741Z,99974.81
2023-03-24T16:45:56.915Z,99961.63
2023-03-24T16:48:24.931Z,99946.16
2023-03-24T16:50:54.895Z,99955.09
2023-03-24T16:53:22.960Z,99953.88
2023-03-24T16:55:50.895Z,99957.31
2023-03-24T16:58:18.960Z,99951.50
2023-03-24T17:00:49.224Z,99959.03
2023-03-24T17:03:19.044Z,99957.31
2023-03-24T17:05:51.148Z,99962.09
2023-03-24T17:08:22.335Z,99957.13
2023-03-24T17:10:52.658Z,99960.75
2023-03-24T17:13:22.644Z,99970.88
2023-03-24T17:15:51.068Z,99969.31
2023-03-24T17:18:21.084Z,99976.34
2023-03-24T17:20:50.555Z,99967.41
2023-03-24T17:23:18.947Z,99976.69
2023-03-24T17:25:47.006Z,99975.81
2023-03-24T17:28:16.218Z,99978.56
2023-03-24T17:30:45.262Z,99973.25
2023-03-24T17:33:14.725Z,99975.97
2023-03-24T17:35:46.810Z,99975.97
2023-03-24T17:38:16.666Z,99991.06
2023-03-24T17:40:44.659Z,99992.94
2023-03-24T17:43:12.666Z,99984.88
2023-03-24T17:45:41.160Z,99975.06
2023-03-24T17:48:09.280Z,99983.50
2023-03-24T17:50:37.303Z,99978.34
2023-03-24T17:53:07.290Z,99978.34
2023-03-24T17:55:35.643Z,99977.81
2023-03-24T17:58:03.594Z,99977.13
2023-03-24T18:00:31.483Z,99972.84
2023-03-24T18:02:59.512Z,99975.91
2023-03-24T18:05:27.550Z,99984.31
2023-03-24T18:07:57.890Z,99984.50
2023-03-24T18:10:27.190Z,99988.25
2023-03-24T18:12:55.465Z,99982.22
2023-03-24T18:15:25.643Z,99980.50
2023-03-24T18:17:53.654Z,99989.94
2023-03-24T18:20:21.960Z,99985.47
2023-03-24T18:22:49.939Z,99987.53
2023-03-24T18:25:17.842Z,99986.81
2023-03-24T18:27:47.103Z,99987.69
2023-03-24T18:30:16.807Z,99997.13
2023-03-24T18:32:44.980Z,99990.94
2023-03-24T18:35:16.538Z,99991.97
2023-03-24T18:37:45.526Z,99998.47
2023-03-24T18:40:16.614Z,99988.88
2023-03-24T18:42:44.589Z,99973.44
2023-03-24T18:45:17.728Z,99978.72
2023-03-24T18:47:46.694Z,99978.22
2023-03-24T18:50:15.389Z,99985.59
2023-03-24T18:52:43.441Z,99993.97
2023-03-24T18:55:11.959Z,99987.78
2023-03-24T18:57:41.893Z,99974.06
2023-03-24T19:00:12.998Z,99980.41
2023-03-24T19:02:42.915Z,99975.13
2023-03-24T19:05:12.792Z,99971.69
2023-03-24T19:07:40.900Z,99968.94
2023-03-24T19:10:09.310Z,99972.53
2023-03-24T19:12:37.238Z,99950.75
2023-03-24T19:15:07.011Z,99966.19
2023-03-24T19:17:34.956Z,99967.22
2023-03-24T19:20:07.446Z,99963.47
2023-03-24T19:22:35.576Z,99958.28
2023-03-24T19:25:03.522Z,99956.41
2023-03-24T19:27:31.431Z,99962.75
2023-03-24T19:29:59.315Z,99965.50
2023-03-24T19:32:27.176Z,99969.09
2023-03-24T19:34:55.074Z,99965.50
2023-03-24T19:37:24.377Z,99974.44
2023-03-24T19:39:52.970Z,99974.59
2023-03-24T19:42:22.690Z,99974.75
2023-03-24T19:44:50.484Z,99995.81
2023-03-24T19:47:18.306Z,99997.69
2023-03-24T19:49:46.911Z,99993.94
2023-03-24T19:52:14.800Z,99998.56
2023-03-24T19:54:44.178Z,100003.88
2023-03-24T19:57:12.094Z,100007.81
2023-03-24T19:59:39.901Z,100004.03
2023-03-24T20:02:11.334Z,99999.59
2023-03-24T20:04:39.320Z,100004.22
2023-03-24T20:07:07.339Z,99997.88
2023-03-24T20:09:37.855Z,99991.56
2023-03-24T20:12:07.583Z,99980.38
2023-03-24T20:14:35.498Z,99988.81
2023-03-24T20:17:03.498Z,99982.47
2023-03-24T20:19:31.487Z,99986.06
2023-03-24T20:21:59.418Z,99986.06
2023-03-24T20:24:27.348Z,99987.09
2023-03-24T20:26:55.434Z,99975.91
2023-03-24T20:29:24.567Z,99974.91
2023-03-24T20:31:52.401Z,99969.59
2023-03-24T20:34:20.527Z,99972.34
2023-03-24T20:36:48.257Z,99972.34
2023-03-24T20:39:16.390Z,99976.97
2023-03-24T20:41:44.256Z,99973.38
2023-03-24T20:44:11.997Z,99974.22
2023-03-24T20:46:41.217Z,99966.00
2023-03-24T20:49:14.171Z,99969.78
2023-03-24T20:51:42.331Z,99968.91
2023-03-24T20:54:10.186Z,99966.16
2023-03-24T20:56:38.385Z,99964.44
2023-03-24T20:59:07.037Z,99962.72
2023-03-24T21:01:42.193Z,99964.44
2023-03-24T21:04:11.690Z,99968.22
2023-03-24T21:06:39.488Z,99970.25
2023-03-24T21:09:07.945Z,99967.50
2023-03-24T21:11:36.010Z,99974.00
2023-03-24T21:14:03.902Z,99971.47
2023-03-24T21:16:33.693Z,99977.81
2023-03-24T21:19:03.638Z,99973.50
2023-03-24T21:21:33.134Z,99979.69
2023-03-24T21:24:01.002Z,99978.97
2023-03-24T21:26:28.918Z,99974.50
2023-03-24T21:28:56.854Z,99969.19
2023-03-24T21:31:26.277Z,99969.19
2023-03-24T21:33:55.326Z,99963.00
2023-03-24T21:36:24.446Z,99964.88
2023-03-24T21:38:54.058Z,99964.88
2023-03-24T21:41:22.954Z,99965.22
2023-03-24T21:43:54.343Z,99967.13
2023-03-24T21:46:25.781Z,99969.00
2023-03-24T21:48:59.338Z,99963.50
2023-03-24T21:51:30.735Z,99962.97
2023-03-24T21:54:03.268Z,99964.69
2023-03-24T21:56:32.466Z,99961.44
2023-03-24T21:59:00.431Z,99966.91
2023-03-24T22:01:30.995Z,99965.91
2023-03-24T22:03:59.505Z,99963.47
2023-03-24T22:06:29.060Z,99964.34
2023-03-24T22:09:06.444Z,99970.84
2023-03-24T22:11:35.971Z,99973.56
2023-03-24T22:14:04.273Z,99969.09
2023-03-24T22:16:33.004Z,99974.59
2023-03-24T22:19:01.477Z,99983.81
2023-03-24T22:21:29.386Z,99978.34
2023-03-24T22:23:57.266Z,99981.09
2023-03-24T22:26:25.363Z,99993.06
2023-03-24T22:28:56.112Z,99992.06
2023-03-24T22:31:24.717Z,99983.13
2023-03-24T22:33:53.073Z,99985.03
2023-03-24T22:36:21.384Z,99977.66
2023-03-24T22:38:49.195Z,99996.28
2023-03-24T22:41:17.014Z,99987.19
2023-03-24T22:43:46.142Z,99987.19
2023-03-24T22:46:15.487Z,99984.47
2023-03-24T22:48:43.330Z,99983.91
2023-03-24T22:51:16.841Z,99991.25
2023-03-24T22:53:44.778Z,99983.38
2023-03-24T22:56:12.850Z,99993.66
2023-03-24T22:58:41.708Z,99987.47
2023-03-24T23:01:10.437Z,99986.78
2023-03-24T23:03:39.659Z,99983.34
2023-03-24T23:06:09.092Z,99978.16
2023-03-24T23:08:38.309Z,99991.16
2023-03-24T23:11:07.827Z,99975.78
2023-03-24T23:13:36.420Z,99971.47
2023-03-24T23:16:04.455Z,99985.31
2023-03-24T23:18:32.761Z,99981.88
2023-03-24T23:21:08.166Z,99993.69
2023-03-24T23:23:37.142Z,99989.56
2023-03-24T23:26:05.766Z,99985.97
2023-03-24T23:28:34.277Z,99994.34
2023-03-24T23:31:02.129Z,99997.06
2023-03-24T23:33:30.240Z,99998.09
2023-03-24T23:35:59.565Z,99996.38
2023-03-24T23:38:28.758Z,100008.19
2023-03-24T23:40:56.529Z,100010.22
2023-03-24T23:43:24.359Z,100013.13
2023-03-24T23:45:56.159Z,100014.69
2023-03-24T23:48:24.030Z,100013.44
2023-03-24T23:50:56.792Z,100017.56
2023-03-24T23:53:24.853Z,100016.84
2023-03-24T23:55:57.010Z,100025.56
2023-03-24T23:58:24.983Z,100030.34
